createdAt,value
2018-07-19T00:04:10.071Z,7.70
2018-07-19T00:09:39.373Z,7.75
2018-07-19T00:15:08.796Z,7.90
2018-07-19T00:20:38.027Z,7.45
2018-07-19T00:26:08.390Z,8.18
2018-07-19T00:31:37.586Z,6.70
2018-07-19T00:37:12.560Z,6.97
2018-07-19T00:42:41.902Z,7.33
2018-07-19T00:48:12.216Z,7.95
2018-07-19T00:53:41.463Z,7.00
2018-07-19T00:59:10.791Z,8.13
2018-07-19T01:04:40.056Z,7.62
2018-07-19T01:10:10.682Z,7.40
2018-07-19T01:15:39.978Z,7.72
2018-07-19T01:21:09.238Z,7.40
2018-07-19T01:26:38.475Z,7.67
2018-07-19T01:32:08.003Z,7.90
2018-07-19T01:37:37.219Z,7.50
2018-07-19T01:43:06.429Z,8.65
2018-07-19T01:48:35.667Z,8.90
2018-07-19T01:54:05.124Z,8.30
2018-07-19T01:59:34.572Z,8.15
2018-07-19T02:05:04.217Z,8.70
2018-07-19T02:10:33.450Z,7.28
2018-07-19T02:16:02.721Z,7.00
2018-07-19T02:21:31.989Z,7.60
2018-07-19T02:27:02.047Z,8.50
2018-07-19T02:32:32.083Z,6.90
2018-07-19T02:38:01.320Z,7.90
2018-07-19T02:43:31.675Z,6.92
2018-07-19T02:49:01.073Z,7.00
2018-07-19T02:54:31.037Z,6.80
2018-07-19T03:00:03.806Z,6.75
2018-07-19T03:05:34.162Z,6.47
2018-07-19T03:11:03.425Z,6.80
2018-07-19T03:16:32.793Z,6.85
2018-07-19T03:22:02.079Z,6.97
2018-07-19T03:27:31.298Z,7.60
2018-07-19T03:33:00.553Z,8.00
2018-07-19T03:38:29.871Z,8.08
2018-07-19T03:43:59.183Z,7.15
2018-07-19T03:49:28.407Z,7.78
2018-07-19T03:54:57.674Z,7.92
2018-07-19T04:00:26.980Z,7.92
2018-07-19T04:05:56.320Z,7.25
2018-07-19T04:11:25.569Z,6.42
2018-07-19T04:16:54.895Z,7.40
2018-07-19T04:22:24.372Z,7.37
2018-07-19T04:27:54.443Z,7.90
2018-07-19T04:33:24.757Z,7.53
2018-07-19T04:38:54.024Z,7.83
2018-07-19T04:44:23.395Z,9.03
2018-07-19T04:49:53.863Z,8.10
2018-07-19T04:55:24.294Z,8.10
2018-07-19T05:00:53.558Z,9.30
2018-07-19T05:06:22.832Z,8.70
2018-07-19T05:11:54.317Z,8.95
2018-07-19T05:17:23.529Z,8.68
2018-07-19T05:22:52.805Z,7.70
2018-07-19T05:28:22.212Z,8.13
2018-07-19T05:33:52.685Z,10.10
2018-07-19T05:39:22.100Z,7.05
2018-07-19T05:44:51.522Z,5.73
2018-07-19T05:50:20.969Z,5.33
2018-07-19T05:55:50.332Z,5.15
2018-07-19T06:01:19.852Z,4.85
2018-07-19T06:06:49.107Z,5.87
2018-07-19T06:12:18.479Z,5.83
2018-07-19T06:17:47.514Z,5.05
2018-07-19T06:23:16.550Z,5.60
2018-07-19T06:28:48.072Z,4.75
2018-07-19T06:34:17.399Z,5.33
2018-07-19T06:39:46.705Z,4.60
2018-07-19T06:45:17.159Z,5.10
2018-07-19T06:50:46.483Z,5.47
2018-07-19T06:56:15.753Z,4.75
2018-07-19T07:01:45.062Z,5.25
2018-07-19T07:07:14.320Z,5.40
2018-07-19T07:12:43.513Z,4.90
2018-07-19T07:18:12.753Z,3.60
2018-07-19T07:23:41.997Z,5.45
2018-07-19T07:29:12.311Z,4.92
2018-07-19T07:34:41.548Z,4.30
2018-07-19T07:40:10.785Z,4.60
2018-07-19T07:45:40.875Z,3.80
2018-07-19T07:51:10.393Z,4.10
2018-07-19T07:56:39.623Z,3.95
2018-07-19T08:02:09.272Z,4.00
2018-07-19T08:07:38.512Z,4.15
2018-07-19T08:13:07.764Z,3.97
2018-07-19T08:18:37.075Z,4.00
2018-07-19T08:24:06.354Z,3.60
2018-07-19T08:29:35.574Z,4.00
2018-07-19T08:35:05.439Z,4.20
2018-07-19T08:40:34.658Z,3.53
2018-07-19T08:46:06.986Z,3.77
2018-07-19T08:51:36.286Z,4.03
2018-07-19T08:57:05.576Z,3.83
2018-07-19T09:02:34.836Z,3.70
2018-07-19T09:08:04.087Z,4.72
2018-07-19T09:13:33.324Z,3.47
2018-07-19T09:19:02.560Z,3.90
2018-07-19T09:24:31.770Z,3.07
2018-07-19T09:30:00.987Z,3.67
2018-07-19T09:35:30.213Z,3.40
2018-07-19T09:40:59.474Z,3.40
2018-07-19T09:46:28.696Z,3.23
2018-07-19T09:51:57.962Z,3.10
2018-07-19T09:57:28.249Z,3.00
2018-07-19T10:02:57.471Z,2.00
2018-07-19T10:08:26.689Z,2.47
2018-07-19T10:13:55.897Z,3.67
2018-07-19T10:19:25.135Z,2.35
2018-07-19T10:24:54.352Z,2.45
2018-07-19T10:30:23.612Z,2.07
2018-07-19T10:35:52.912Z,3.00
2018-07-19T10:41:22.190Z,3.60
2018-07-19T10:46:51.503Z,3.00
2018-07-19T10:52:21.505Z,2.40
2018-07-19T10:57:50.884Z,3.40
2018-07-19T11:03:20.295Z,3.00
2018-07-19T11:08:49.675Z,3.03
2018-07-19T11:14:19.039Z,3.60
2018-07-19T11:19:48.419Z,3.23
2018-07-19T11:25:17.691Z,2.97
2018-07-19T11:30:47.000Z,3.30
2018-07-19T11:36:18.079Z,3.47
2018-07-19T11:41:47.384Z,3.62
2018-07-19T11:47:16.733Z,3.33
2018-07-19T11:52:45.998Z,2.80
2018-07-19T11:58:17.442Z,3.10
2018-07-19T12:03:46.668Z,3.10
2018-07-19T12:09:16.236Z,3.37
2018-07-19T12:14:45.510Z,2.70
2018-07-19T12:20:14.777Z,3.67
2018-07-19T12:25:44.246Z,2.80
2018-07-19T12:31:13.549Z,3.03
2018-07-19T12:36:42.883Z,2.95
2018-07-19T12:42:12.153Z,3.20
2018-07-19T12:47:41.429Z,2.90
2018-07-19T12:53:10.729Z,3.20
2018-07-19T12:58:39.987Z,2.65
2018-07-19T13:04:09.362Z,2.93
2018-07-19T13:09:38.547Z,2.87
2018-07-19T13:15:08.226Z,3.60
2018-07-19T13:20:37.531Z,3.10
2018-07-19T13:26:07.193Z,3.40
2018-07-19T13:31:36.388Z,2.93
2018-07-19T13:37:05.915Z,2.90
2018-07-19T13:42:35.224Z,2.57
2018-07-19T13:48:04.438Z,3.10
2018-07-19T13:53:50.624Z,2.92
2018-07-19T13:59:19.936Z,2.70
2018-07-19T14:04:49.226Z,2.80
2018-07-19T14:10:18.530Z,3.53
2018-07-19T14:15:47.791Z,2.70
2018-07-19T14:21:17.143Z,3.10
2018-07-19T14:26:46.426Z,2.60
2018-07-19T14:32:16.285Z,2.73
2018-07-19T14:37:45.617Z,2.60
2018-07-19T14:43:14.938Z,2.80
2018-07-19T14:48:43.894Z,2.90
2018-07-19T14:54:13.092Z,3.03
2018-07-19T14:59:42.272Z,2.57
2018-07-19T15:05:11.188Z,2.70
2018-07-19T15:10:40.405Z,2.53
2018-07-19T15:16:09.602Z,3.10
2018-07-19T15:21:38.811Z,2.87
2018-07-19T15:27:08.106Z,2.90
2018-07-19T15:32:37.371Z,3.10
2018-07-19T15:38:08.733Z,3.50
2018-07-19T15:43:38.044Z,2.72
2018-07-19T15:49:07.236Z,2.83
2018-07-19T15:54:36.487Z,2.93
2018-07-19T16:00:06.438Z,2.70
2018-07-19T16:05:35.651Z,2.77
2018-07-19T16:11:04.926Z,2.83
2018-07-19T16:16:34.198Z,2.70
2018-07-19T16:22:03.438Z,2.83
2018-07-19T16:27:32.787Z,2.70
2018-07-19T16:33:02.039Z,3.02
2018-07-19T16:38:31.303Z,2.83
2018-07-19T16:44:00.518Z,3.00
2018-07-19T16:49:29.793Z,3.15
2018-07-19T16:54:59.064Z,2.70
2018-07-19T17:00:28.265Z,3.07
2018-07-19T17:05:59.396Z,3.10
2018-07-19T17:11:29.731Z,3.37
2018-07-19T17:16:59.809Z,3.10
2018-07-19T17:22:30.014Z,2.60
2018-07-19T17:28:00.326Z,2.73
2018-07-19T17:33:29.532Z,2.75
2018-07-19T17:38:58.791Z,2.87
2018-07-19T17:44:28.153Z,2.70
2018-07-19T17:49:57.361Z,2.80
2018-07-19T17:55:26.656Z,2.40
2018-07-19T18:00:56.007Z,2.50
2018-07-19T18:06:28.448Z,2.60
2018-07-19T18:11:57.717Z,2.50
2018-07-19T18:17:27.039Z,2.08
2018-07-19T18:22:56.286Z,2.10
2018-07-19T18:28:25.605Z,2.93
2018-07-19T18:33:54.868Z,2.97
2018-07-19T18:39:24.211Z,2.15
2018-07-19T18:44:53.595Z,3.07
2018-07-19T18:50:22.882Z,2.70
2018-07-19T18:55:52.305Z,3.00
2018-07-19T19:01:21.808Z,2.62
2018-07-19T19:06:51.299Z,2.90
2018-07-19T19:12:20.655Z,3.50
2018-07-19T19:17:50.070Z,2.98
2018-07-19T19:23:19.716Z,3.00
2018-07-19T19:28:49.166Z,2.90
2018-07-19T19:34:18.566Z,2.77
2018-07-19T19:39:47.874Z,3.20
2018-07-19T19:45:17.239Z,2.95
2018-07-19T19:50:47.675Z,2.95
2018-07-19T19:56:17.047Z,3.22
2018-07-19T20:01:46.484Z,4.03
2018-07-19T20:07:15.911Z,3.72
2018-07-19T20:12:45.389Z,4.10
2018-07-19T20:18:14.652Z,3.30
2018-07-19T20:23:44.059Z,3.57
2018-07-19T20:29:13.445Z,3.77
2018-07-19T20:34:42.745Z,4.40
2018-07-19T20:40:12.025Z,5.80
2018-07-19T20:45:42.352Z,5.07
2018-07-19T20:51:11.694Z,4.40
2018-07-19T20:56:41.011Z,6.70
2018-07-19T21:02:10.296Z,5.58
2018-07-19T21:07:39.536Z,5.27
2018-07-19T21:13:08.795Z,4.50
2018-07-19T21:18:38.892Z,4.37
2018-07-19T21:24:08.123Z,4.80
2018-07-19T21:29:37.379Z,4.70
2018-07-19T21:35:09.030Z,4.80
2018-07-19T21:40:40.452Z,5.00
2018-07-19T21:46:09.918Z,4.70
2018-07-19T21:51:46.803Z,4.70
2018-07-19T21:57:16.209Z,5.92
2018-07-19T22:02:45.757Z,4.83
2018-07-19T22:08:15.081Z,5.25
2018-07-19T22:13:44.494Z,5.92
2018-07-19T22:19:13.728Z,4.97
2018-07-19T22:24:44.096Z,5.23
2018-07-19T22:30:13.867Z,5.17
2018-07-19T22:35:44.208Z,5.57
2018-07-19T22:41:13.612Z,5.33
2018-07-19T22:46:42.880Z,5.50
2018-07-19T22:52:12.250Z,6.28
2018-07-19T22:57:41.533Z,6.50
2018-07-19T23:03:11.902Z,5.42
2018-07-19T23:08:41.091Z,5.60
2018-07-19T23:14:10.340Z,5.80
2018-07-19T23:19:39.629Z,5.10
2018-07-19T23:25:09.015Z,6.20
2018-07-19T23:30:38.534Z,5.42
2018-07-19T23:36:11.790Z,6.10
2018-07-19T23:41:45.416Z,5.77
2018-07-19T23:47:22.539Z,5.65
2018-07-19T23:52:51.837Z,6.35
2018-07-19T23:58:21.135Z,6.50
